Traverse City, MI (49684)

3:29 PM EST on February 12, 2016 (GMT -0500)
Hills of Westbrook | | Change Station
CLOSE
Current Station
Personal Weather Station
Location: Traverse City, MI
Elevation: 1043 ft
Nearby Weather Stations
Active Advisory: Winter Weather Advisory

Elev 1043 ft 44.76 °N, 85.69 °W | Updated 26 seconds ago

Snow
Snow
10.4 °F
Feels Like -6 °F
N
15.4
Wind Variable Wind from NNW
Gusts 17.4 mph

Today
High -- | Low -- °F
--% Chance of Precip.
Yesterday
High -- | Low -- °F
Precip. -- in
Pressure 30.02 in
Visibility 0.5 miles
Clouds
Windchill -6 °F
Dew Point -7 °F
Humidity 44%
Rainfall 0.00 in
Snow Depth Not available.
7:48 AM 6:06 PM
Waxing Crescent, 23% visible
SPECI KTVC 122005Z 34017G28KT 1/2SM SN BLSN VV010 M10/M13 A3002 RMK AO2 PK WND 35028/1959 TWR VIS 3/4 P0000 T11001133 $
Pressure 30.02 in
Visibility 0.5 miles
Clouds
Windchill -6 °F
Dew Point -7 °F
Humidity 44%
Rainfall 0.00 in
Snow Depth Not available.
7:48 AM 6:06 PM
Waxing Crescent, 23% visible
SPECI KTVC 122005Z 34017G28KT 1/2SM SN BLSN VV010 M10/M13 A3002 RMK AO2 PK WND 35028/1959 TWR VIS 3/4 P0000 T11001133 $

10-Day Weather Forecast

Almanac

Astronomy

Feb. 12, 2016 Rise Set
Actual Time
Civil Twilight
Nautical Twilight
Astronomical Twilight
Moon
Length of Visible Light
Length of Day
Tomorrow will be .
, % of the Moon is Illuminated

Today's Extremes

State Highs State Lows

Community

WunderPhotos

Upload Photos

1,892,388 photos uploaded!

WunderBlog® & News

Nearby

Air Quality

  Air Quality AQ Index Pollutant
Not available.

Snow Depth

Station Depth Elevation

Earthquake Activity

City Distance Mag. Time & Date
Minimum magnitude displayed is 2.5.

Coastal Water Temperatures

Place Temperature

Stations

Nearby Weather Stations

Station Location Temp. Windchill Dew Point Humidity Wind Precip. Elev Updated Type
                   

Watches & Warnings

Winter Weather Advisory
Issued: 9:16 AM EST Feb. 12, 2016 – National Weather Service

... Winter Weather Advisory remains in effect until noon EST
Saturday...

* lake effect snow showers will become more substantial
today... and continue into Saturday.

* The heaviest snowfall rates will occur between 1 PM and 7 PM
today.

* Total snow accumulations of 2 to 6 inches... with locally
higher amounts.

* Look for periods of poor visibility.

* Plan on slippery Road conditions... including during the
evening commute.